sensor_id;sensor_type;location;lat;lon;timestamp;temperature;humidity
39751;DHT22;37579;51.074;17.004;2024-03-23T00:53:50;25.40;53.80
39751;DHT22;37579;51.074;17.004;2024-03-23T00:56:15;25.40;53.80
39751;DHT22;37579;51.074;17.004;2024-03-23T00:58:41;25.40;53.80
39751;DHT22;37579;51.074;17.004;2024-03-23T01:01:07;25.30;53.80
39751;DHT22;37579;51.074;17.004;2024-03-23T01:03:32;25.40;53.80
39751;DHT22;37579;51.074;17.004;2024-03-23T01:06:02;25.30;53.80
39751;DHT22;37579;51.074;17.004;2024-03-23T01:08:29;25.40;53.80
39751;DHT22;37579;51.074;17.004;2024-03-23T01:10:59;25.40;53.80
39751;DHT22;37579;51.074;17.004;2024-03-23T01:13:26;25.30;53.60
39751;DHT22;37579;51.074;17.004;2024-03-23T01:15:52;25.30;53.60
39751;DHT22;37579;51.074;17.004;2024-03-23T01:18:18;25.30;53.70
39751;DHT22;37579;51.074;17.004;2024-03-23T01:20:45;25.30;53.70
39751;DHT22;37579;51.074;17.004;2024-03-23T01:23:11;25.20;53.60
39751;DHT22;37579;51.074;17.004;2024-03-23T01:25:37;25.30;53.60
39751;DHT22;37579;51.074;17.004;2024-03-23T01:28:03;25.20;53.60
39751;DHT22;37579;51.074;17.004;2024-03-23T01:30:28;25.20;53.60
39751;DHT22;37579;51.074;17.004;2024-03-23T01:32:54;25.20;53.50
39751;DHT22;37579;51.074;17.004;2024-03-23T01:35:20;25.30;53.40
39751;DHT22;37579;51.074;17.004;2024-03-23T01:37:46;25.30;53.40
39751;DHT22;37579;51.074;17.004;2024-03-23T01:40:12;25.30;53.30
39751;DHT22;37579;51.074;17.004;2024-03-23T01:42:40;25.30;53.40
39751;DHT22;37579;51.074;17.004;2024-03-23T01:45:08;25.30;53.30
39751;DHT22;37579;51.074;17.004;2024-03-23T01:47:35;25.30;53.30
39751;DHT22;37579;51.074;17.004;2024-03-23T01:50:01;25.30;53.30
39751;DHT22;37579;51.074;17.004;2024-03-23T01:52:27;25.30;53.40
39751;DHT22;37579;51.074;17.004;2024-03-23T01:54:53;25.30;53.40
39751;DHT22;37579;51.074;17.004;2024-03-23T01:57:22;25.30;53.40
39751;DHT22;37579;51.074;17.004;2024-03-23T01:59:48;25.30;53.50
39751;DHT22;37579;51.074;17.004;2024-03-23T02:02:22;25.20;53.50
39751;DHT22;37579;51.074;17.004;2024-03-23T02:04:48;25.20;53.40
39751;DHT22;37579;51.074;17.004;2024-03-23T02:07:14;25.20;53.40
39751;DHT22;37579;51.074;17.004;2024-03-23T02:09:40;25.20;54.10
39751;DHT22;37579;51.074;17.004;2024-03-23T02:12:05;25.20;53.40
39751;DHT22;37579;51.074;17.004;2024-03-23T02:14:32;25.20;53.40
39751;DHT22;37579;51.074;17.004;2024-03-23T02:16:58;25.20;53.30
39751;DHT22;37579;51.074;17.004;2024-03-23T02:19:24;25.20;53.40
39751;DHT22;37579;51.074;17.004;2024-03-23T02:21:49;25.20;53.40
39751;DHT22;37579;51.074;17.004;2024-03-23T02:24:15;25.20;53.40
39751;DHT22;37579;51.074;17.004;2024-03-23T02:26:41;25.20;53.50
39751;DHT22;37579;51.074;17.004;2024-03-23T02:29:06;25.20;53.40
39751;DHT22;37579;51.074;17.004;2024-03-23T02:31:34;25.10;53.50
39751;DHT22;37579;51.074;17.004;2024-03-23T02:33:59;25.10;53.40
39751;DHT22;37579;51.074;17.004;2024-03-23T02:36:25;25.10;53.30
39751;DHT22;37579;51.074;17.004;2024-03-23T02:38:52;25.10;53.30
39751;DHT22;37579;51.074;17.004;2024-03-23T02:41:17;25.10;53.30
39751;DHT22;37579;51.074;17.004;2024-03-23T02:43:51;25.10;53.30
39751;DHT22;37579;51.074;17.004;2024-03-23T02:46:17;25.10;53.30
39751;DHT22;37579;51.074;17.004;2024-03-23T02:48:43;25.10;53.30
39751;DHT22;37579;51.074;17.004;2024-03-23T02:51:09;25.10;53.40
39751;DHT22;37579;51.074;17.004;2024-03-23T02:53:34;25.10;53.40
39751;DHT22;37579;51.074;17.004;2024-03-23T02:56:00;25.20;53.30
39751;DHT22;37579;51.074;17.004;2024-03-23T02:58:26;25.20;53.40
39751;DHT22;37579;51.074;17.004;2024-03-23T03:00:52;25.10;53.30
39751;DHT22;37579;51.074;17.004;2024-03-23T03:03:18;25.10;53.30
39751;DHT22;37579;51.074;17.004;2024-03-23T03:05:43;25.10;53.40
39751;DHT22;37579;51.074;17.004;2024-03-23T03:08:09;25.10;53.40
39751;DHT22;37579;51.074;17.004;2024-03-23T03:10:35;25.10;53.40
39751;DHT22;37579;51.074;17.004;2024-03-23T03:13:02;25.10;53.40
39751;DHT22;37579;51.074;17.004;2024-03-23T03:15:28;25.10;53.40
39751;DHT22;37579;51.074;17.004;2024-03-23T03:17:54;25.10;53.40
39751;DHT22;37579;51.074;17.004;2024-03-23T03:20:20;25.10;53.30
39751;DHT22;37579;51.074;17.004;2024-03-23T03:22:47;25.10;53.30
39751;DHT22;37579;51.074;17.004;2024-03-23T03:25:13;25.10;53.40
39751;DHT22;37579;51.074;17.004;2024-03-23T03:27:39;25.10;53.40
39751;DHT22;37579;51.074;17.004;2024-03-23T03:30:05;25.10;53.30
39751;DHT22;37579;51.074;17.004;2024-03-23T03:32:33;25.10;53.30
39751;DHT22;37579;51.074;17.004;2024-03-23T03:34:58;25.10;53.20
39751;DHT22;37579;51.074;17.004;2024-03-23T03:37:24;25.20;53.20
39751;DHT22;37579;51.074;17.004;2024-03-23T03:39:50;25.20;53.20
39751;DHT22;37579;51.074;17.004;2024-03-23T03:42:16;25.10;53.10
39751;DHT22;37579;51.074;17.004;2024-03-23T03:44:42;25.20;53.10
39751;DHT22;37579;51.074;17.004;2024-03-23T03:47:08;25.10;53.10
39751;DHT22;37579;51.074;17.004;2024-03-23T03:49:33;25.20;53.10
39751;DHT22;37579;51.074;17.004;2024-03-23T03:51:59;25.20;53.00
39751;DHT22;37579;51.074;17.004;2024-03-23T03:54:26;25.20;52.90
39751;DHT22;37579;51.074;17.004;2024-03-23T03:56:52;25.20;52.90
39751;DHT22;37579;51.074;17.004;2024-03-23T03:59:18;25.20;52.90
39751;DHT22;37579;51.074;17.004;2024-03-23T04:01:44;25.20;52.90
39751;DHT22;37579;51.074;17.004;2024-03-23T04:04:10;25.20;53.00
39751;DHT22;37579;51.074;17.004;2024-03-23T04:06:37;25.20;53.00
39751;DHT22;37579;51.074;17.004;2024-03-23T04:09:02;25.10;53.10
39751;DHT22;37579;51.074;17.004;2024-03-23T04:11:28;25.20;53.40
39751;DHT22;37579;51.074;17.004;2024-03-23T04:13:54;25.20;53.10
39751;DHT22;37579;51.074;17.004;2024-03-23T04:16:33;25.20;53.10
39751;DHT22;37579;51.074;17.004;2024-03-23T04:19:00;25.30;53.10
39751;DHT22;37579;51.074;17.004;2024-03-23T04:21:25;25.30;53.30
39751;DHT22;37579;51.074;17.004;2024-03-23T04:23:51;25.30;53.10
39751;DHT22;37579;51.074;17.004;2024-03-23T04:26:17;25.30;53.00
39751;DHT22;37579;51.074;17.004;2024-03-23T04:28:43;25.30;53.00
39751;DHT22;37579;51.074;17.004;2024-03-23T04:31:09;25.30;53.00
39751;DHT22;37579;51.074;17.004;2024-03-23T04:33:35;25.30;53.60
39751;DHT22;37579;51.074;17.004;2024-03-23T04:36:01;25.30;52.90
39751;DHT22;37579;51.074;17.004;2024-03-23T04:38:28;25.30;52.90
39751;DHT22;37579;51.074;17.004;2024-03-23T04:40:57;25.30;52.90
39751;DHT22;37579;51.074;17.004;2024-03-23T04:43:23;25.30;52.90
39751;DHT22;37579;51.074;17.004;2024-03-23T04:45:49;25.30;52.90
39751;DHT22;37579;51.074;17.004;2024-03-23T04:48:15;25.30;53.00
39751;DHT22;37579;51.074;17.004;2024-03-23T04:50:41;25.30;53.00
39751;DHT22;37579;51.074;17.004;2024-03-23T04:53:07;25.30;52.80
39751;DHT22;37579;51.074;17.004;2024-03-23T04:55:33;25.30;53.00
39751;DHT22;37579;51.074;17.004;2024-03-23T05:01:04;25.20;52.90
39751;DHT22;37579;51.074;17.004;2024-03-23T05:03:30;25.20;53.00
39751;DHT22;37579;51.074;17.004;2024-03-23T05:05:56;25.20;52.90
39751;DHT22;37579;51.074;17.004;2024-03-23T05:08:21;25.20;52.90
39751;DHT22;37579;51.074;17.004;2024-03-23T05:10:47;25.20;53.00
39751;DHT22;37579;51.074;17.004;2024-03-23T05:13:13;25.20;53.00
39751;DHT22;37579;51.074;17.004;2024-03-23T05:15:38;25.20;53.00
39751;DHT22;37579;51.074;17.004;2024-03-23T05:18:05;25.20;53.10
39751;DHT22;37579;51.074;17.004;2024-03-23T05:20:31;25.20;53.10
39751;DHT22;37579;51.074;17.004;2024-03-23T05:22:57;25.10;53.20
39751;DHT22;37579;51.074;17.004;2024-03-23T05:25:23;25.20;53.20
39751;DHT22;37579;51.074;17.004;2024-03-23T05:27:49;25.20;53.20
39751;DHT22;37579;51.074;17.004;2024-03-23T05:30:15;25.20;53.10
39751;DHT22;37579;51.074;17.004;2024-03-23T05:32:41;25.10;53.10
39751;DHT22;37579;51.074;17.004;2024-03-23T05:35:08;25.10;53.20
39751;DHT22;37579;51.074;17.004;2024-03-23T05:37:34;25.10;53.20
39751;DHT22;37579;51.074;17.004;2024-03-23T05:40:00;25.00;53.10
39751;DHT22;37579;51.074;17.004;2024-03-23T05:42:26;25.00;53.30
39751;DHT22;37579;51.074;17.004;2024-03-23T05:44:52;25.00;53.10
39751;DHT22;37579;51.074;17.004;2024-03-23T05:47:18;25.00;53.10
39751;DHT22;37579;51.074;17.004;2024-03-23T05:49:45;25.10;52.90
39751;DHT22;37579;51.074;17.004;2024-03-23T05:52:11;25.20;52.80
39751;DHT22;37579;51.074;17.004;2024-03-23T05:54:38;25.20;52.60
39751;DHT22;37579;51.074;17.004;2024-03-23T05:57:04;25.20;52.60
39751;DHT22;37579;51.074;17.004;2024-03-23T05:59:30;25.20;52.50
39751;DHT22;37579;51.074;17.004;2024-03-23T06:01:56;25.30;52.50
39751;DHT22;37579;51.074;17.004;2024-03-23T06:04:22;25.30;52.40
39751;DHT22;37579;51.074;17.004;2024-03-23T06:06:48;25.30;52.50
39751;DHT22;37579;51.074;17.004;2024-03-23T06:09:14;25.30;52.30
39751;DHT22;37579;51.074;17.004;2024-03-23T06:11:39;25.30;52.30
39751;DHT22;37579;51.074;17.004;2024-03-23T06:14:05;25.30;52.30
39751;DHT22;37579;51.074;17.004;2024-03-23T06:16:31;25.30;52.30
39751;DHT22;37579;51.074;17.004;2024-03-23T06:18:57;25.30;52.30
39751;DHT22;37579;51.074;17.004;2024-03-23T06:21:24;25.30;52.30
39751;DHT22;37579;51.074;17.004;2024-03-23T06:23:53;25.30;52.30
39751;DHT22;37579;51.074;17.004;2024-03-23T06:26:19;25.30;52.30
39751;DHT22;37579;51.074;17.004;2024-03-23T06:28:46;25.30;52.40
39751;DHT22;37579;51.074;17.004;2024-03-23T06:31:12;25.30;52.40
39751;DHT22;37579;51.074;17.004;2024-03-23T06:33:38;25.30;52.40
39751;DHT22;37579;51.074;17.004;2024-03-23T06:36:05;25.30;52.40
39751;DHT22;37579;51.074;17.004;2024-03-23T06:38:31;25.30;52.40
39751;DHT22;37579;51.074;17.004;2024-03-23T06:40:57;25.30;52.60
39751;DHT22;37579;51.074;17.004;2024-03-23T06:43:23;25.30;52.50
39751;DHT22;37579;51.074;17.004;2024-03-23T06:45:53;25.30;52.50
39751;DHT22;37579;51.074;17.004;2024-03-23T06:48:19;25.30;52.30
39751;DHT22;37579;51.074;17.004;2024-03-23T06:50:46;25.40;52.40
39751;DHT22;37579;51.074;17.004;2024-03-23T06:53:12;25.30;52.30
39751;DHT22;37579;51.074;17.004;2024-03-23T06:55:38;25.40;52.30
39751;DHT22;37579;51.074;17.004;2024-03-23T06:58:04;25.40;52.30
39751;DHT22;37579;51.074;17.004;2024-03-23T07:00:30;25.30;52.40
39751;DHT22;37579;51.074;17.004;2024-03-23T07:02:56;25.30;52.40
39751;DHT22;37579;51.074;17.004;2024-03-23T07:05:22;25.30;52.40
39751;DHT22;37579;51.074;17.004;2024-03-23T07:07:50;25.30;52.40
39751;DHT22;37579;51.074;17.004;2024-03-23T07:10:16;25.30;52.40
39751;DHT22;37579;51.074;17.004;2024-03-23T07:12:41;25.40;52.50
39751;DHT22;37579;51.074;17.004;2024-03-23T07:15:07;25.40;52.60
39751;DHT22;37579;51.074;17.004;2024-03-23T07:17:36;25.40;53.10
39751;DHT22;37579;51.074;17.004;2024-03-23T07:20:02;25.40;52.70
39751;DHT22;37579;51.074;17.004;2024-03-23T07:22:32;25.30;53.10
39751;DHT22;37579;51.074;17.004;2024-03-23T07:25:01;25.30;53.90
39751;DHT22;37579;51.074;17.004;2024-03-23T07:27:27;25.30;53.30
39751;DHT22;37579;51.074;17.004;2024-03-23T07:29:52;25.40;53.30
39751;DHT22;37579;51.074;17.004;2024-03-23T07:32:18;25.40;53.30
39751;DHT22;37579;51.074;17.004;2024-03-23T07:34:44;25.40;53.30
39751;DHT22;37579;51.074;17.004;2024-03-23T07:37:10;25.40;53.30
39751;DHT22;37579;51.074;17.004;2024-03-23T07:39:36;25.50;53.30
39751;DHT22;37579;51.074;17.004;2024-03-23T07:42:02;25.50;53.20
39751;DHT22;37579;51.074;17.004;2024-03-23T07:44:28;25.50;53.20
39751;DHT22;37579;51.074;17.004;2024-03-23T07:46:54;25.50;53.20
39751;DHT22;37579;51.074;17.004;2024-03-23T07:49:19;25.50;53.10
39751;DHT22;37579;51.074;17.004;2024-03-23T07:51:45;25.60;53.20
39751;DHT22;37579;51.074;17.004;2024-03-23T07:54:11;25.60;53.10
39751;DHT22;37579;51.074;17.004;2024-03-23T07:56:37;25.60;53.10
39751;DHT22;37579;51.074;17.004;2024-03-23T07:59:02;25.60;53.10
39751;DHT22;37579;51.074;17.004;2024-03-23T08:01:31;25.60;53.20
39751;DHT22;37579;51.074;17.004;2024-03-23T08:03:57;25.50;53.30
39751;DHT22;37579;51.074;17.004;2024-03-23T08:06:23;25.40;53.40
39751;DHT22;37579;51.074;17.004;2024-03-23T08:08:52;25.40;54.30
39751;DHT22;37579;51.074;17.004;2024-03-23T08:11:33;25.40;53.40
39751;DHT22;37579;51.074;17.004;2024-03-23T08:14:00;25.40;53.30
39751;DHT22;37579;51.074;17.004;2024-03-23T08:16:27;25.50;53.20
39751;DHT22;37579;51.074;17.004;2024-03-23T08:18:53;25.40;53.50
39751;DHT22;37579;51.074;17.004;2024-03-23T08:21:19;25.40;53.70
39751;DHT22;37579;51.074;17.004;2024-03-23T08:23:45;25.30;53.60
39751;DHT22;37579;51.074;17.004;2024-03-23T08:26:12;25.40;53.60
39751;DHT22;37579;51.074;17.004;2024-03-23T08:28:39;25.50;53.40
39751;DHT22;37579;51.074;17.004;2024-03-23T08:31:09;25.60;53.40
39751;DHT22;37579;51.074;17.004;2024-03-23T08:33:35;25.60;53.40
39751;DHT22;37579;51.074;17.004;2024-03-23T08:36:10;25.60;53.30
39751;DHT22;37579;51.074;17.004;2024-03-23T08:38:39;25.60;53.30
39751;DHT22;37579;51.074;17.004;2024-03-23T08:41:10;25.70;53.20
39751;DHT22;37579;51.074;17.004;2024-03-23T08:43:40;25.70;53.10
39751;DHT22;37579;51.074;17.004;2024-03-23T08:46:09;25.80;53.20
39751;DHT22;37579;51.074;17.004;2024-03-23T08:48:45;25.80;53.00
39751;DHT22;37579;51.074;17.004;2024-03-23T08:51:14;25.80;52.90
39751;DHT22;37579;51.074;17.004;2024-03-23T08:53:41;25.80;53.00
39751;DHT22;37579;51.074;17.004;2024-03-23T08:56:07;25.80;53.00
39751;DHT22;37579;51.074;17.004;2024-03-23T08:58:35;25.80;53.00
39751;DHT22;37579;51.074;17.004;2024-03-23T09:01:10;25.80;53.00
39751;DHT22;37579;51.074;17.004;2024-03-23T09:03:36;25.90;53.00
39751;DHT22;37579;51.074;17.004;2024-03-23T09:06:10;25.80;52.90
39751;DHT22;37579;51.074;17.004;2024-03-23T09:08:36;25.90;53.10
39751;DHT22;37579;51.074;17.004;2024-03-23T09:11:06;25.90;53.10
39751;DHT22;37579;51.074;17.004;2024-03-23T09:13:36;25.90;52.90
39751;DHT22;37579;51.074;17.004;2024-03-23T09:16:02;25.90;52.70
39751;DHT22;37579;51.074;17.004;2024-03-23T09:18:32;26.00;52.70
39751;DHT22;37579;51.074;17.004;2024-03-23T09:20:57;26.00;52.60
39751;DHT22;37579;51.074;17.004;2024-03-23T09:23:23;26.00;52.60
39751;DHT22;37579;51.074;17.004;2024-03-23T09:25:49;26.00;52.90
39751;DHT22;37579;51.074;17.004;2024-03-23T09:28:15;25.90;53.00
39751;DHT22;37579;51.074;17.004;2024-03-23T09:30:41;26.00;53.00
39751;DHT22;37579;51.074;17.004;2024-03-23T09:33:10;26.00;53.00
39751;DHT22;37579;51.074;17.004;2024-03-23T09:35:40;25.90;53.30
39751;DHT22;37579;51.074;17.004;2024-03-23T09:38:06;26.10;53.30
39751;DHT22;37579;51.074;17.004;2024-03-23T09:40:40;26.10;53.50
39751;DHT22;37579;51.074;17.004;2024-03-23T09:43:07;26.10;53.80
39751;DHT22;37579;51.074;17.004;2024-03-23T09:45:38;26.10;53.70
39751;DHT22;37579;51.074;17.004;2024-03-23T09:48:04;26.10;53.90
39751;DHT22;37579;51.074;17.004;2024-03-23T09:50:31;26.10;53.90
39751;DHT22;37579;51.074;17.004;2024-03-23T09:52:57;26.10;54.00
39751;DHT22;37579;51.074;17.004;2024-03-23T09:57:55;26.10;54.10
39751;DHT22;37579;51.074;17.004;2024-03-23T10:00:21;26.10;54.20
39751;DHT22;37579;51.074;17.004;2024-03-23T10:02:47;26.10;54.40
39751;DHT22;37579;51.074;17.004;2024-03-23T10:05:22;26.10;54.40
39751;DHT22;37579;51.074;17.004;2024-03-23T10:07:51;26.00;55.00
39751;DHT22;37579;51.074;17.004;2024-03-23T10:10:17;26.10;54.60
39751;DHT22;37579;51.074;17.004;2024-03-23T10:12:48;26.00;54.60
39751;DHT22;37579;51.074;17.004;2024-03-23T10:15:21;26.00;55.00
39751;DHT22;37579;51.074;17.004;2024-03-23T10:17:48;26.10;54.90
39751;DHT22;37579;51.074;17.004;2024-03-23T10:20:19;25.90;55.10
39751;DHT22;37579;51.074;17.004;2024-03-23T10:22:45;25.90;55.20
39751;DHT22;37579;51.074;17.004;2024-03-23T10:25:11;25.90;55.40
39751;DHT22;37579;51.074;17.004;2024-03-23T10:27:39;25.90;55.90
39751;DHT22;37579;51.074;17.004;2024-03-23T10:30:13;25.70;56.50
39751;DHT22;37579;51.074;17.004;2024-03-23T10:32:40;25.70;57.20
39751;DHT22;37579;51.074;17.004;2024-03-23T10:35:21;25.60;57.10
39751;DHT22;37579;51.074;17.004;2024-03-23T10:37:48;25.60;57.90
39751;DHT22;37579;51.074;17.004;2024-03-23T10:40:17;25.80;57.70
39751;DHT22;37579;51.074;17.004;2024-03-23T10:42:44;25.90;57.60
39751;DHT22;37579;51.074;17.004;2024-03-23T10:45:10;25.90;56.80
39751;DHT22;37579;51.074;17.004;2024-03-23T10:47:37;25.90;57.20
39751;DHT22;37579;51.074;17.004;2024-03-23T10:50:06;25.90;57.10
39751;DHT22;37579;51.074;17.004;2024-03-23T10:52:35;25.80;57.10
39751;DHT22;37579;51.074;17.004;2024-03-23T10:55:04;25.80;57.20
39751;DHT22;37579;51.074;17.004;2024-03-23T11:00:18;25.80;57.10
39751;DHT22;37579;51.074;17.004;2024-03-23T11:02:47;25.80;57.30
39751;DHT22;37579;51.074;17.004;2024-03-23T11:05:39;25.90;57.20
39751;DHT22;37579;51.074;17.004;2024-03-23T11:08:39;25.90;57.00
39751;DHT22;37579;51.074;17.004;2024-03-23T11:11:18;25.80;57.10
39751;DHT22;37579;51.074;17.004;2024-03-23T11:13:48;25.90;57.10
39751;DHT22;37579;51.074;17.004;2024-03-23T11:16:25;25.90;56.90
39751;DHT22;37579;51.074;17.004;2024-03-23T11:19:35;25.90;56.90
39751;DHT22;37579;51.074;17.004;2024-03-23T11:22:02;25.90;56.90
39751;DHT22;37579;51.074;17.004;2024-03-23T11:24:29;25.70;57.40
39751;DHT22;37579;51.074;17.004;2024-03-23T11:26:55;25.80;57.00
